createdAt,value
2023-02-11T00:00:58.363Z,22.19
2023-02-11T00:03:29.188Z,22.16
2023-02-11T00:06:04.548Z,22.12
2023-02-11T00:08:35.200Z,22.09
2023-02-11T00:11:06.524Z,22.06
2023-02-11T00:13:37.246Z,22.02
2023-02-11T00:16:12.201Z,21.99
2023-02-11T00:18:42.875Z,21.97
2023-02-11T00:21:16.485Z,21.93
2023-02-11T00:23:47.400Z,21.90
2023-02-11T00:26:19.886Z,21.90
2023-02-11T00:28:52.070Z,21.87
2023-02-11T00:31:24.153Z,21.82
2023-02-11T00:33:55.901Z,21.81
2023-02-11T00:36:28.661Z,21.77
2023-02-11T00:39:00.657Z,21.76
2023-02-11T00:41:31.790Z,21.75
2023-02-11T00:44:02.628Z,21.72
2023-02-11T00:46:33.346Z,21.70
2023-02-11T00:49:04.433Z,21.67
2023-02-11T00:51:35.354Z,21.65
2023-02-11T00:54:06.531Z,21.64
2023-02-11T00:56:37.646Z,21.61
2023-02-11T00:59:08.298Z,21.60
2023-02-11T01:01:39.075Z,21.58
2023-02-11T01:04:09.964Z,21.56
2023-02-11T01:06:40.704Z,21.53
2023-02-11T01:09:11.545Z,21.51
2023-02-11T01:11:42.188Z,21.48
2023-02-11T01:14:12.923Z,21.47
2023-02-11T01:16:43.955Z,21.45
2023-02-11T01:19:14.731Z,21.44
2023-02-11T01:21:45.542Z,21.43
2023-02-11T01:24:16.279Z,21.41
2023-02-11T01:26:47.034Z,21.39
2023-02-11T01:29:17.741Z,21.40
2023-02-11T01:31:49.042Z,21.39
2023-02-11T01:34:19.848Z,21.35
2023-02-11T01:36:50.494Z,21.38
2023-02-11T01:39:21.168Z,21.36
2023-02-11T01:41:51.959Z,21.34
2023-02-11T01:44:28.922Z,21.31
2023-02-11T01:46:59.640Z,21.28
2023-02-11T01:49:33.859Z,21.24
2023-02-11T01:52:08.611Z,21.20
2023-02-11T01:55:01.267Z,21.21
2023-02-11T01:57:33.888Z,21.23
2023-02-11T02:00:11.552Z,21.21
2023-02-11T02:02:50.069Z,21.20
2023-02-11T02:05:29.849Z,21.20
2023-02-11T02:08:02.058Z,21.19
2023-02-11T02:10:35.382Z,21.16
2023-02-11T02:13:06.073Z,21.17
2023-02-11T02:15:39.494Z,21.16
2023-02-11T02:18:42.485Z,21.14
2023-02-11T02:21:46.596Z,21.14
2023-02-11T02:24:32.137Z,21.13
2023-02-11T02:27:35.215Z,21.10
2023-02-11T02:30:44.740Z,21.10
2023-02-11T02:33:25.391Z,21.09
2023-02-11T02:36:07.281Z,21.08
2023-02-11T02:38:46.096Z,21.08
2023-02-11T02:41:19.061Z,21.07
2023-02-11T02:43:51.933Z,21.04
2023-02-11T02:46:25.369Z,21.01
2023-02-11T02:48:57.560Z,20.97
2023-02-11T02:51:50.818Z,20.99
2023-02-11T02:54:38.080Z,20.96
2023-02-11T02:57:20.733Z,20.93
2023-02-11T03:00:05.486Z,20.90
2023-02-11T03:02:42.554Z,20.89
2023-02-11T03:05:22.437Z,20.90
2023-02-11T03:08:00.258Z,20.88
2023-02-11T03:10:35.990Z,20.89
2023-02-11T03:13:08.140Z,20.93
2023-02-11T03:15:44.528Z,20.94
2023-02-11T03:18:20.160Z,21.01
2023-02-11T03:20:54.469Z,21.06
2023-02-11T03:23:30.386Z,21.13
2023-02-11T03:26:05.925Z,21.19
2023-02-11T03:28:42.924Z,21.25
2023-02-11T03:31:19.897Z,21.30
2023-02-11T03:34:02.361Z,21.35
2023-02-11T03:36:37.283Z,21.39
2023-02-11T03:39:10.446Z,21.43
2023-02-11T03:41:43.359Z,21.47
2023-02-11T03:44:17.395Z,21.52
2023-02-11T03:46:52.413Z,21.55
2023-02-11T03:49:28.183Z,21.58
2023-02-11T03:52:02.663Z,21.63
2023-02-11T03:54:34.073Z,21.68
2023-02-11T03:57:07.591Z,21.72
2023-02-11T03:59:52.536Z,21.74
2023-02-11T04:02:24.853Z,21.77
2023-02-11T04:04:57.641Z,21.80
2023-02-11T04:07:28.868Z,21.84
2023-02-11T04:09:59.570Z,21.88
2023-02-11T04:12:30.382Z,21.92
2023-02-11T04:15:01.036Z,21.97
2023-02-11T04:17:32.090Z,21.99
2023-02-11T04:20:02.975Z,22.00
2023-02-11T04:22:33.865Z,22.02
2023-02-11T04:25:04.634Z,22.02
2023-02-11T04:27:35.537Z,22.05
2023-02-11T04:30:08.137Z,22.07
2023-02-11T04:32:39.301Z,22.09
2023-02-11T04:35:10.641Z,22.10
2023-02-11T04:37:41.363Z,22.11
2023-02-11T04:40:13.609Z,22.12
2023-02-11T04:42:44.554Z,22.15
2023-02-11T04:45:15.395Z,22.15
2023-02-11T04:47:46.298Z,22.17
2023-02-11T04:50:18.486Z,22.19
2023-02-11T04:52:49.654Z,22.20
2023-02-11T04:55:20.520Z,22.22
2023-02-11T04:57:51.192Z,22.25
2023-02-11T05:00:22.284Z,22.26
2023-02-11T05:02:53.318Z,22.26
2023-02-11T05:05:24.059Z,22.25
2023-02-11T05:07:54.795Z,22.24
2023-02-11T05:10:25.754Z,22.24
2023-02-11T05:12:56.500Z,22.28
2023-02-11T05:15:27.622Z,22.29
2023-02-11T05:17:58.705Z,22.28
2023-02-11T05:20:29.341Z,22.28
2023-02-11T05:23:00.040Z,22.28
2023-02-11T05:25:30.941Z,22.28
2023-02-11T05:28:01.854Z,22.27
2023-02-11T05:30:32.996Z,22.28
2023-02-11T05:33:03.818Z,22.31
2023-02-11T05:35:34.519Z,22.31
2023-02-11T05:38:05.291Z,22.29
2023-02-11T05:40:36.023Z,22.28
2023-02-11T05:43:07.041Z,22.26
2023-02-11T05:45:37.730Z,22.28
2023-02-11T05:48:08.851Z,22.27
2023-02-11T05:50:39.592Z,22.26
2023-02-11T05:53:10.409Z,22.25
2023-02-11T05:55:41.389Z,22.22
2023-02-11T05:58:12.134Z,22.22
2023-02-11T06:00:43.188Z,22.22
2023-02-11T06:03:14.116Z,22.22
2023-02-11T06:05:45.238Z,22.21
2023-02-11T06:08:15.981Z,22.21
2023-02-11T06:10:48.987Z,22.19
2023-02-11T06:13:19.916Z,22.17
2023-02-11T06:15:58.506Z,22.17
2023-02-11T06:18:29.602Z,22.14
2023-02-11T06:21:00.521Z,22.13
2023-02-11T06:23:31.417Z,22.12
2023-02-11T06:26:05.996Z,22.11
2023-02-11T06:28:39.336Z,22.09
2023-02-11T06:31:12.183Z,22.08
2023-02-11T06:33:43.560Z,22.07
2023-02-11T06:36:17.587Z,22.05
2023-02-11T06:38:48.989Z,22.02
2023-02-11T06:41:24.122Z,22.02
2023-02-11T06:43:55.377Z,22.02
2023-02-11T06:46:26.143Z,22.00
2023-02-11T06:48:56.956Z,21.97
2023-02-11T06:51:28.407Z,21.91
2023-02-11T06:53:59.256Z,21.89
2023-02-11T06:56:30.517Z,21.86
2023-02-11T06:59:01.656Z,21.82
2023-02-11T07:01:32.600Z,21.81
2023-02-11T07:04:03.707Z,21.79
2023-02-11T07:06:34.804Z,21.76
2023-02-11T07:09:06.586Z,21.73
2023-02-11T07:11:37.487Z,21.69
2023-02-11T07:14:09.737Z,21.68
2023-02-11T07:16:41.418Z,21.65
2023-02-11T07:19:12.384Z,21.62
2023-02-11T07:21:43.196Z,21.57
2023-02-11T07:24:14.345Z,21.55
2023-02-11T07:26:45.591Z,21.50
2023-02-11T07:29:16.733Z,21.43
2023-02-11T07:31:47.541Z,21.36
2023-02-11T07:34:18.626Z,21.32
2023-02-11T07:36:50.292Z,21.28
2023-02-11T07:39:21.992Z,21.23
2023-02-11T07:41:52.783Z,21.20
2023-02-11T07:44:23.617Z,21.15
2023-02-11T07:46:54.437Z,21.13
2023-02-11T07:49:25.410Z,21.09
2023-02-11T07:51:56.544Z,21.07
2023-02-11T07:54:27.875Z,21.08
2023-02-11T07:56:58.868Z,21.09
2023-02-11T07:59:29.679Z,21.07
2023-02-11T08:02:00.433Z,21.07
2023-02-11T08:04:31.630Z,21.10
2023-02-11T08:07:02.383Z,21.16
2023-02-11T08:09:34.583Z,21.20
2023-02-11T08:12:05.709Z,21.20
2023-02-11T08:14:36.530Z,21.16
2023-02-11T08:17:07.597Z,21.14
2023-02-11T08:19:38.542Z,21.11
2023-02-11T08:22:09.280Z,21.10
2023-02-11T08:24:40.025Z,21.03
2023-02-11T08:27:10.769Z,21.02
2023-02-11T08:29:41.696Z,20.98
2023-02-11T08:32:12.652Z,20.91
2023-02-11T08:34:43.490Z,20.86
2023-02-11T08:37:14.305Z,20.80
2023-02-11T08:39:47.287Z,20.74
2023-02-11T08:42:18.045Z,20.66
2023-02-11T08:44:48.786Z,20.62
2023-02-11T08:47:19.631Z,20.56
2023-02-11T08:49:50.365Z,20.49
2023-02-11T08:52:21.206Z,20.44
2023-02-11T08:54:52.224Z,20.34
2023-02-11T08:57:22.986Z,20.34
2023-02-11T08:59:53.928Z,20.35
2023-02-11T09:02:24.735Z,20.39
2023-02-11T09:04:55.631Z,20.45
2023-02-11T09:07:26.460Z,20.48
2023-02-11T09:09:57.557Z,20.54
2023-02-11T09:12:28.520Z,20.64
2023-02-11T09:14:59.601Z,20.71
2023-02-11T09:17:30.238Z,20.79
2023-02-11T09:20:01.164Z,20.84
2023-02-11T09:22:31.986Z,20.90
2023-02-11T09:25:03.256Z,20.96
2023-02-11T09:27:34.409Z,20.99
2023-02-11T09:30:05.928Z,21.05
2023-02-11T09:32:37.310Z,21.12
2023-02-11T09:35:09.475Z,21.20
2023-02-11T09:37:41.873Z,21.23
2023-02-11T09:40:14.453Z,21.33
2023-02-11T09:42:51.731Z,21.39
2023-02-11T09:45:25.941Z,21.45
2023-02-11T09:48:00.569Z,21.51
2023-02-11T09:50:35.684Z,21.57
2023-02-11T09:53:13.101Z,21.62
2023-02-11T09:55:46.160Z,21.66
2023-02-11T09:58:22.124Z,21.72
2023-02-11T10:01:03.572Z,21.81
2023-02-11T10:04:02.082Z,21.85
2023-02-11T10:06:42.208Z,21.87
2023-02-11T10:09:25.676Z,21.91
2023-02-11T10:12:04.863Z,21.95
2023-02-11T10:14:56.529Z,21.98
2023-02-11T10:17:38.047Z,21.99
2023-02-11T10:20:25.033Z,22.00
2023-02-11T10:23:01.074Z,22.04
2023-02-11T10:25:38.425Z,22.08
2023-02-11T10:28:17.059Z,22.11
2023-02-11T10:30:57.659Z,22.14
2023-02-11T10:33:32.692Z,22.16
2023-02-11T10:36:04.963Z,22.19
2023-02-11T10:38:36.606Z,22.24
2023-02-11T10:41:11.485Z,22.23
2023-02-11T10:43:45.248Z,22.30
2023-02-11T10:46:17.453Z,22.32
2023-02-11T10:48:51.719Z,22.34
2023-02-11T10:51:25.230Z,22.39
2023-02-11T10:54:19.576Z,22.39
2023-02-11T10:56:52.313Z,22.44
2023-02-11T10:59:30.647Z,22.49
2023-02-11T11:02:03.858Z,22.51
2023-02-11T11:04:44.133Z,22.57
2023-02-11T11:07:19.468Z,22.61
2023-02-11T11:09:53.396Z,22.61
2023-02-11T11:12:40.280Z,22.63
2023-02-11T11:15:23.026Z,22.63
2023-02-11T11:18:20.928Z,22.65
2023-02-11T11:21:00.046Z,22.65
2023-02-11T11:23:32.088Z,22.66
2023-02-11T11:26:06.498Z,22.66
2023-02-11T11:28:41.911Z,22.64
2023-02-11T11:31:20.141Z,22.64
2023-02-11T11:33:53.275Z,22.63
2023-02-11T11:36:32.365Z,22.67
2023-02-11T11:39:17.035Z,22.72
2023-02-11T11:41:55.850Z,22.78
2023-02-11T11:44:32.430Z,22.82
2023-02-11T11:47:21.689Z,22.88
2023-02-11T11:50:02.304Z,22.93
2023-02-11T11:52:42.965Z,22.98
2023-02-11T11:55:20.807Z,23.03
2023-02-11T11:57:52.531Z,23.06
2023-02-11T12:00:29.248Z,23.08
2023-02-11T12:03:36.790Z,23.10
2023-02-11T12:06:19.939Z,23.15
2023-02-11T12:09:01.982Z,23.19
2023-02-11T12:11:45.447Z,23.21
2023-02-11T12:14:32.245Z,23.25
2023-02-11T12:17:12.755Z,23.27
2023-02-11T12:20:02.618Z,23.31
2023-02-11T12:22:46.027Z,23.37
2023-02-11T12:25:29.160Z,23.39
2023-02-11T12:28:16.201Z,23.42
2023-02-11T12:31:07.869Z,23.47
2023-02-11T12:33:57.454Z,23.52
2023-02-11T12:36:43.781Z,23.56
2023-02-11T12:39:26.329Z,23.59
2023-02-11T12:42:43.235Z,23.63
2023-02-11T12:45:29.631Z,23.66
2023-02-11T12:48:22.898Z,23.68
2023-02-11T12:50:59.446Z,23.69
2023-02-11T12:53:42.974Z,23.70
2023-02-11T12:56:20.203Z,23.69
2023-02-11T12:58:55.639Z,23.72
2023-02-11T13:01:32.491Z,23.73
2023-02-11T13:04:13.180Z,23.74
2023-02-11T13:06:48.297Z,23.77
2023-02-11T13:09:23.617Z,23.80
2023-02-11T13:12:20.256Z,23.83
2023-02-11T13:14:54.804Z,23.83
2023-02-11T13:17:34.834Z,23.83
2023-02-11T13:20:19.767Z,23.85
2023-02-11T13:23:00.677Z,23.89
2023-02-11T13:25:41.933Z,23.90
2023-02-11T13:28:27.027Z,23.89
2023-02-11T13:31:03.006Z,23.90
2023-02-11T13:33:43.143Z,23.90
2023-02-11T13:36:23.750Z,23.91
2023-02-11T13:39:01.077Z,23.90
2023-02-11T13:41:38.306Z,23.90
2023-02-11T13:44:26.679Z,23.90
2023-02-11T13:47:01.642Z,23.90
2023-02-11T13:49:40.772Z,23.89
2023-02-11T13:52:25.315Z,23.86
2023-02-11T13:54:58.977Z,23.83
2023-02-11T13:57:39.999Z,23.80
2023-02-11T14:00:43.519Z,23.84
2023-02-11T14:03:59.018Z,23.85
2023-02-11T14:07:00.485Z,23.88
2023-02-11T14:09:42.090Z,23.87
2023-02-11T14:12:37.210Z,23.90
2023-02-11T14:15:39.321Z,23.91
2023-02-11T14:18:39.797Z,23.94
2023-02-11T14:21:18.724Z,23.94
2023-02-11T14:23:50.764Z,23.95
2023-02-11T14:26:36.410Z,23.96
2023-02-11T14:29:19.064Z,23.96
2023-02-11T14:31:59.023Z,23.95
2023-02-11T14:34:52.632Z,23.95
2023-02-11T14:37:37.992Z,23.96
2023-02-11T14:40:27.154Z,23.99
2023-02-11T14:43:03.086Z,23.99
2023-02-11T14:45:36.707Z,24.00
2023-02-11T14:48:13.695Z,23.98
2023-02-11T14:50:47.426Z,24.02
2023-02-11T14:53:21.614Z,24.01
2023-02-11T14:55:53.728Z,24.03
2023-02-11T14:58:26.262Z,24.06
2023-02-11T15:01:00.211Z,24.08
2023-02-11T15:03:37.609Z,24.08
2023-02-11T15:06:16.848Z,24.10
2023-02-11T15:08:51.057Z,24.11
2023-02-11T15:11:25.040Z,24.13
2023-02-11T15:13:57.343Z,24.13
2023-02-11T15:16:29.778Z,24.13
2023-02-11T15:19:05.630Z,24.14
2023-02-11T15:21:37.761Z,24.14
2023-02-11T15:24:27.506Z,24.13
2023-02-11T15:27:14.679Z,24.13
2023-02-11T15:29:50.632Z,24.10
2023-02-11T15:32:23.747Z,24.16
2023-02-11T15:34:57.394Z,24.17
2023-02-11T15:37:28.743Z,24.14
2023-02-11T15:40:13.060Z,24.10
2023-02-11T15:42:54.992Z,24.08
2023-02-11T15:45:30.559Z,24.04
2023-02-11T15:48:10.939Z,24.04
2023-02-11T15:50:51.658Z,24.04
2023-02-11T15:53:28.988Z,24.03
2023-02-11T15:56:09.209Z,24.01
2023-02-11T15:58:42.096Z,24.01
2023-02-11T16:01:13.710Z,23.99
2023-02-11T16:03:50.395Z,23.96
2023-02-11T16:06:25.479Z,23.94
2023-02-11T16:09:21.825Z,23.92
2023-02-11T16:12:03.614Z,23.91
2023-02-11T16:14:41.672Z,23.91
2023-02-11T16:17:14.493Z,23.91
2023-02-11T16:19:49.714Z,23.89
2023-02-11T16:22:25.656Z,23.88
2023-02-11T16:24:59.445Z,23.86
2023-02-11T16:27:37.001Z,23.83
2023-02-11T16:30:24.527Z,23.80
2023-02-11T16:32:57.005Z,23.78
2023-02-11T16:35:27.838Z,23.78
2023-02-11T16:37:59.499Z,23.75
2023-02-11T16:40:30.663Z,23.72
2023-02-11T16:43:01.819Z,23.72
2023-02-11T16:45:33.036Z,23.70
2023-02-11T16:48:04.330Z,23.71
2023-02-11T16:50:35.646Z,23.71
2023-02-11T16:53:07.536Z,23.72
2023-02-11T16:55:38.895Z,23.74
2023-02-11T16:58:10.518Z,23.76
2023-02-11T17:00:41.491Z,23.77
2023-02-11T17:03:21.716Z,23.80
2023-02-11T17:05:55.941Z,23.81
2023-02-11T17:08:27.022Z,23.81
2023-02-11T17:10:58.020Z,23.83
2023-02-11T17:13:28.832Z,23.85
2023-02-11T17:15:59.983Z,23.87
2023-02-11T17:18:30.851Z,23.88
2023-02-11T17:21:02.316Z,23.89
2023-02-11T17:23:33.203Z,23.90
2023-02-11T17:26:04.344Z,23.90
2023-02-11T17:28:35.613Z,23.92
2023-02-11T17:31:10.478Z,23.91
2023-02-11T17:33:41.413Z,23.94
2023-02-11T17:36:13.650Z,23.97
2023-02-11T17:38:44.617Z,23.99
2023-02-11T17:41:15.471Z,23.95
2023-02-11T17:43:46.371Z,24.00
2023-02-11T17:46:17.289Z,24.03
2023-02-11T17:48:48.396Z,24.05
2023-02-11T17:51:26.938Z,24.00
2023-02-11T17:54:00.596Z,24.05
2023-02-11T17:56:30.099Z,24.06
2023-02-11T17:59:02.604Z,24.06
2023-02-11T18:01:36.843Z,24.10
2023-02-11T18:04:09.565Z,24.11
2023-02-11T18:06:40.590Z,24.12
2023-02-11T18:09:11.577Z,24.13
2023-02-11T18:11:43.200Z,24.14
2023-02-11T18:14:14.255Z,24.14
2023-02-11T18:16:46.074Z,24.14
2023-02-11T18:19:17.206Z,24.16
2023-02-11T18:21:50.486Z,24.15
2023-02-11T18:24:21.910Z,24.18
2023-02-11T18:26:52.896Z,24.21
2023-02-11T18:29:23.808Z,24.21
2023-02-11T18:31:57.935Z,24.19
2023-02-11T18:34:29.273Z,24.20
2023-02-11T18:37:00.172Z,24.23
2023-02-11T18:39:31.499Z,24.22
2023-02-11T18:42:02.474Z,24.22
2023-02-11T18:44:33.248Z,24.23
2023-02-11T18:47:04.642Z,24.22
2023-02-11T18:49:36.815Z,24.22
2023-02-11T18:52:08.377Z,24.23
2023-02-11T18:54:39.214Z,24.24
2023-02-11T18:57:10.264Z,24.24
2023-02-11T18:59:41.123Z,24.23
2023-02-11T19:02:13.812Z,24.24
2023-02-11T19:04:45.297Z,24.24
2023-02-11T19:07:16.521Z,24.24
2023-02-11T19:09:47.301Z,24.24
2023-02-11T19:12:21.480Z,24.25
2023-02-11T19:14:53.052Z,24.26
2023-02-11T19:17:23.933Z,24.28
2023-02-11T19:19:55.279Z,24.28
2023-02-11T19:22:26.272Z,24.28
2023-02-11T19:24:57.587Z,24.29
2023-02-11T19:27:28.785Z,24.29
2023-02-11T19:29:59.605Z,24.30
2023-02-11T19:32:31.350Z,24.30
2023-02-11T19:35:02.175Z,24.31
2023-02-11T19:37:33.210Z,24.32
2023-02-11T19:40:04.780Z,24.32
2023-02-11T19:42:35.703Z,24.34
2023-02-11T19:45:07.615Z,24.34
2023-02-11T19:47:38.662Z,24.36
2023-02-11T19:50:12.007Z,24.39
2023-02-11T19:52:43.414Z,24.38
2023-02-11T19:55:14.451Z,24.38
2023-02-11T19:57:45.266Z,24.37
2023-02-11T20:00:17.814Z,24.36
2023-02-11T20:02:48.806Z,24.37
2023-02-11T20:05:20.064Z,24.38
2023-02-11T20:07:50.801Z,24.38
2023-02-11T20:10:21.960Z,24.36
2023-02-11T20:12:53.062Z,24.37
2023-02-11T20:15:24.116Z,24.34
2023-02-11T20:17:55.248Z,24.37
2023-02-11T20:20:26.257Z,24.37
2023-02-11T20:22:58.292Z,24.36
2023-02-11T20:25:29.225Z,24.36
2023-02-11T20:28:00.015Z,24.36
2023-02-11T20:30:30.884Z,24.34
2023-02-11T20:33:01.748Z,24.34
2023-02-11T20:35:32.668Z,24.35
2023-02-11T20:38:04.135Z,24.36
2023-02-11T20:40:35.751Z,24.35
2023-02-11T20:43:06.530Z,24.37
2023-02-11T20:45:39.511Z,24.38
2023-02-11T20:48:10.653Z,24.40
2023-02-11T20:50:41.794Z,24.40
2023-02-11T20:53:12.785Z,24.41
2023-02-11T20:55:43.790Z,24.42
2023-02-11T20:58:14.685Z,24.43
2023-02-11T21:00:45.674Z,24.43
2023-02-11T21:03:16.493Z,24.42
2023-02-11T21:05:47.391Z,24.40
2023-02-11T21:08:18.373Z,24.38
2023-02-11T21:10:50.882Z,24.37
2023-02-11T21:13:21.566Z,24.34
2023-02-11T21:15:57.020Z,24.33
2023-02-11T21:18:28.623Z,24.32
2023-02-11T21:20:59.869Z,24.27
2023-02-11T21:23:30.945Z,24.27
2023-02-11T21:26:01.655Z,24.24
2023-02-11T21:28:32.982Z,24.20
2023-02-11T21:31:04.716Z,24.15
2023-02-11T21:33:36.097Z,24.13
2023-02-11T21:36:08.778Z,24.10
2023-02-11T21:38:39.487Z,24.06
2023-02-11T21:41:10.594Z,24.02
2023-02-11T21:43:42.147Z,23.98
2023-02-11T21:46:15.369Z,23.95
2023-02-11T21:48:46.395Z,23.92
2023-02-11T21:51:19.049Z,23.87
2023-02-11T21:53:53.895Z,23.83
2023-02-11T21:56:26.371Z,23.79
2023-02-11T21:58:58.821Z,23.77
2023-02-11T22:01:32.182Z,23.75
2023-02-11T22:04:03.190Z,23.72
2023-02-11T22:06:35.847Z,23.68
2023-02-11T22:09:09.538Z,23.67
2023-02-11T22:11:40.482Z,23.65
2023-02-11T22:14:11.401Z,23.61
2023-02-11T22:16:42.340Z,23.58
2023-02-11T22:19:13.348Z,23.56
2023-02-11T22:21:44.466Z,23.51
2023-02-11T22:24:15.213Z,23.48
2023-02-11T22:26:45.965Z,23.47
2023-02-11T22:29:16.778Z,23.43
2023-02-11T22:31:47.603Z,23.40
2023-02-11T22:34:18.396Z,23.37
2023-02-11T22:36:49.278Z,23.36
2023-02-11T22:39:20.220Z,23.34
2023-02-11T22:41:51.327Z,23.32
2023-02-11T22:44:22.017Z,23.28
2023-02-11T22:46:53.603Z,23.23
2023-02-11T22:49:25.210Z,23.21
2023-02-11T22:51:55.895Z,23.19
2023-02-11T22:54:26.840Z,23.18
2023-02-11T22:56:57.503Z,23.15
2023-02-11T22:59:28.402Z,23.12
2023-02-11T23:01:59.197Z,23.09
2023-02-11T23:04:30.029Z,23.05
2023-02-11T23:07:00.734Z,23.01
2023-02-11T23:09:31.508Z,22.98
2023-02-11T23:12:02.316Z,22.96
2023-02-11T23:14:33.029Z,22.92
2023-02-11T23:17:03.787Z,22.88
2023-02-11T23:19:34.730Z,22.83
2023-02-11T23:22:05.546Z,22.79
2023-02-11T23:24:36.231Z,22.81
2023-02-11T23:27:07.230Z,22.80
2023-02-11T23:29:37.993Z,22.79
2023-02-11T23:32:08.816Z,22.78
2023-02-11T23:34:39.769Z,22.76
2023-02-11T23:37:10.508Z,22.72
2023-02-11T23:39:41.457Z,22.70
2023-02-11T23:42:12.191Z,22.68
2023-02-11T23:44:43.033Z,22.66
2023-02-11T23:47:13.767Z,22.60
2023-02-11T23:49:44.434Z,22.60
2023-02-11T23:52:15.458Z,22.57
2023-02-11T23:54:48.297Z,22.55
2023-02-11T23:57:19.133Z,22.53
2023-02-11T23:59:52.691Z,22.51
